Time;durP1;ratioP1;P1;durP2;ratioP2;P2;SDS_P1;SDS_P2;PMS_P1;PMS_P2;Temp;Humidity;BMP_temperature;BMP_pressure;BME280_temperature;BME280_humidity;BME280_pressure;Samples;Min_cycle;Max_cycle;Signal;HPM_P1;HPM_P2
2022/10/20 00:00:56;;;;;;;25.05;18.67;;;13.60;99.90;;;;;;4973344;28;20031;-57
2022/10/20 00:03:22;;;;;;;41.28;30.92;;;13.60;99.90;;;;;;4973126;28;20035;-58
2022/10/20 00:05:48;;;;;;;31.15;23.17;;;13.50;99.90;;;;;;4972152;28;20038;-56
2022/10/20 00:08:15;;;;;;;19.88;15.38;;;13.50;99.90;;;;;;4971576;28;20130;-57
2022/10/20 00:10:40;;;;;;;20.88;15.55;;;13.40;99.90;;;;;;4972176;28;20471;-56
2022/10/20 00:13:06;;;;;;;14.57;10.27;;;13.50;99.90;;;;;;4973492;28;20034;-57
2022/10/20 00:15:32;;;;;;;13.13;9.63;;;13.50;99.90;;;;;;4972300;28;20027;-57
2022/10/20 00:17:58;;;;;;;11.32;8.95;;;13.30;99.90;;;;;;4938729;28;20438;-57
2022/10/20 00:20:24;;;;;;;13.60;9.10;;;;;;;;;;4971828;28;20031;-56
2022/10/20 00:22:49;;;;;;;13.48;8.32;;;13.00;99.90;;;;;;4973082;28;20034;-57
2022/10/20 00:25:16;;;;;;;14.00;9.00;;;;;;;;;;4972376;28;20093;-57
2022/10/20 00:27:41;;;;;;;11.38;9.00;;;13.10;99.90;;;;;;4920995;28;20039;-57
2022/10/20 00:30:08;;;;;;;12.15;9.43;;;13.00;99.90;;;;;;4972318;28;20122;-56
2022/10/20 00:32:34;;;;;;;13.98;10.15;;;13.00;99.90;;;;;;4913664;29;20433;-57
2022/10/20 00:34:59;;;;;;;12.10;9.63;;;13.10;99.90;;;;;;4916259;29;20199;-56
2022/10/20 00:37:25;;;;;;;13.65;9.65;;;13.20;99.90;;;;;;4917320;29;20464;-56
2022/10/20 00:39:51;;;;;;;14.32;9.13;;;13.10;99.90;;;;;;4916721;29;20028;-57
2022/10/20 00:42:18;;;;;;;14.93;9.65;;;13.00;99.90;;;;;;4916859;29;20060;-57
2022/10/20 00:44:43;;;;;;;11.48;9.52;;;12.90;99.90;;;;;;4917356;29;20040;-56
2022/10/20 00:47:21;;;;;;;12.05;9.40;;;13.00;99.90;;;;;;4897897;29;20433;-58
2022/10/20 00:49:48;;;;;;;14.98;9.70;;;13.10;99.90;;;;;;4866793;29;20112;-57
2022/10/20 00:52:19;;;;;;;15.40;10.38;;;13.10;99.90;;;;;;4896740;29;20047;-57
2022/10/20 00:54:45;;;;;;;14.52;10.38;;;13.10;99.90;;;;;;4897574;29;20029;-57
2022/10/20 00:57:11;;;;;;;13.85;9.95;;;13.20;99.90;;;;;;4897607;29;20025;-56
2022/10/20 00:59:38;;;;;;;12.75;10.00;;;13.20;99.90;;;;;;4898770;29;20048;-56
2022/10/20 01:02:07;;;;;;;14.70;9.75;;;13.20;99.90;;;;;;4897540;29;20025;-58
2022/10/20 01:04:35;;;;;;;16.00;9.70;;;12.90;99.90;;;;;;4949706;28;20058;-57
2022/10/20 01:07:01;;;;;;;12.05;9.48;;;;;;;;;;4954190;28;20034;-58
2022/10/20 01:09:27;;;;;;;13.38;10.23;;;12.80;99.90;;;;;;4954299;28;20030;-57
2022/10/20 01:12:11;;;;;;;14.43;9.82;;;12.60;99.90;;;;;;4956229;28;20043;-57
2022/10/20 01:14:45;;;;;;;13.32;8.98;;;12.80;99.90;;;;;;4953012;28;20035;-57
2022/10/20 01:17:44;;;;;;;15.70;9.90;;;12.90;99.90;;;;;;4956135;28;20038;-57
2022/10/20 01:20:36;;;;;;;13.88;9.80;;;12.80;99.90;;;;;;4953967;28;20035;-57
2022/10/20 01:23:25;;;;;;;11.23;9.40;;;12.90;99.90;;;;;;4950705;28;20035;-57
2022/10/20 01:25:54;;;;;;;15.30;9.75;;;13.00;99.90;;;;;;4974801;28;20038;-57
2022/10/20 01:28:29;;;;;;;13.02;10.52;;;13.00;99.90;;;;;;4973348;28;20046;-57
2022/10/20 01:31:01;;;;;;;12.52;10.25;;;13.00;99.90;;;;;;4975647;28;20033;-57
2022/10/20 01:33:33;;;;;;;15.20;10.45;;;12.90;99.90;;;;;;4969975;28;20436;-57
2022/10/20 01:36:26;;;;;;;15.98;11.88;;;12.90;99.90;;;;;;4975407;28;20027;-58
2022/10/20 01:39:02;;;;;;;15.82;10.68;;;12.90;99.90;;;;;;4975314;28;20046;-57
2022/10/20 01:41:35;;;;;;;13.80;10.13;;;;;;;;;;4974678;28;20034;-57
2022/10/20 01:44:03;;;;;;;14.40;10.40;;;;;;;;;;4973789;28;20475;-58
2022/10/20 01:46:29;;;;;;;12.48;9.32;;;;;;;;;;4941247;28;20218;-57
2022/10/20 01:48:56;;;;;;;13.10;10.45;;;;;;;;;;4943885;28;20039;-57
2022/10/20 01:51:22;;;;;;;14.27;11.15;;;;;;;;;;4974817;28;20039;-58
2022/10/20 01:53:48;;;;;;;13.75;10.13;;;;;;;;;;4974676;28;20085;-57
2022/10/20 01:56:18;;;;;;;16.48;11.48;;;;;;;;;;4925382;28;20034;-57
2022/10/20 01:58:51;;;;;;;15.43;10.55;;;;;;;;;;4940996;28;20031;-57
2022/10/20 02:01:24;;;;;;;18.00;11.93;;;;;;;;;;4975130;28;20034;-57
2022/10/20 02:03:55;;;;;;;13.43;11.43;;;;;;;;;;4974380;28;20105;-57
2022/10/20 02:06:39;;;;;;;18.67;12.05;;;;;;;;;;4957523;28;20375;-57
2022/10/20 02:09:13;;;;;;;14.00;11.45;;;;;;;;;;4974444;28;20033;-57
2022/10/20 02:11:39;;;;;;;16.23;11.77;;;;;;;;;;4972936;28;20037;-56
2022/10/20 02:14:09;;;;;;;18.20;10.25;;;12.30;99.90;;;;;;4970227;28;20050;-58
2022/10/20 02:16:44;;;;;;;14.93;10.88;;;12.20;99.90;;;;;;4975689;28;20023;-57
2022/10/20 02:19:12;;;;;;;15.25;10.70;;;12.10;99.90;;;;;;4973695;28;20034;-57
2022/10/20 02:21:38;;;;;;;13.82;10.90;;;12.10;99.90;;;;;;4974622;28;20031;-57
2022/10/20 02:24:06;;;;;;;16.95;11.10;;;12.20;99.90;;;;;;4974221;28;20046;-59
2022/10/20 02:26:34;;;;;;;21.08;15.75;;;12.20;99.90;;;;;;4929049;28;20105;-58
2022/10/20 02:29:08;;;;;;;19.20;13.45;;;12.20;99.90;;;;;;4972772;28;20062;-59
2022/10/20 02:31:34;;;;;;;15.68;12.10;;;12.20;99.90;;;;;;4973088;28;20038;-58
2022/10/20 02:34:01;;;;;;;14.35;10.40;;;12.30;99.90;;;;;;4975189;28;20019;-58
2022/10/20 02:36:28;;;;;;;14.85;10.95;;;12.10;99.90;;;;;;4973918;28;20038;-57
2022/10/20 02:38:54;;;;;;;13.88;10.68;;;12.10;99.90;;;;;;4959728;28;20039;-58
2022/10/20 02:41:20;;;;;;;15.68;11.77;;;12.00;99.90;;;;;;4958557;28;20069;-57
2022/10/20 02:43:45;;;;;;;13.00;10.63;;;12.00;99.90;;;;;;4921068;29;20129;-57
2022/10/20 02:46:11;;;;;;;15.63;10.43;;;12.10;99.90;;;;;;4956421;28;20028;-57
2022/10/20 02:48:37;;;;;;;17.35;10.70;;;12.00;99.90;;;;;;4955507;28;20031;-58
2022/10/20 02:51:06;;;;;;;15.00;11.23;;;12.00;99.90;;;;;;4912014;29;20040;-57
2022/10/20 02:53:32;;;;;;;15.75;11.15;;;12.00;99.90;;;;;;4961381;28;20038;-58
2022/10/20 02:55:58;;;;;;;14.70;11.10;;;12.00;99.90;;;;;;4960422;28;20034;-59
2022/10/20 02:58:24;;;;;;;15.13;10.90;;;12.00;99.90;;;;;;4954560;28;20035;-57
2022/10/20 03:00:50;;;;;;;12.77;10.63;;;12.00;99.90;;;;;;4958134;28;20069;-58
2022/10/20 03:03:17;;;;;;;15.88;10.85;;;12.00;99.90;;;;;;4954045;28;20373;-57
2022/10/20 03:05:44;;;;;;;16.48;10.35;;;12.00;99.90;;;;;;4958575;28;20039;-58
2022/10/20 03:08:10;;;;;;;13.98;9.88;;;11.90;99.90;;;;;;4959316;28;20045;-57
2022/10/20 03:10:37;;;;;;;15.00;11.27;;;11.90;99.90;;;;;;4955299;28;20035;-57
2022/10/20 03:13:04;;;;;;;15.43;10.70;;;11.90;99.90;;;;;;4958607;28;20079;-58
2022/10/20 03:15:30;;;;;;;11.43;9.90;;;11.80;99.90;;;;;;4955566;28;20074;-59
2022/10/20 03:17:56;;;;;;;14.30;9.45;;;11.80;99.90;;;;;;4958097;28;20122;-58
2022/10/20 03:20:22;;;;;;;12.20;10.02;;;11.70;99.90;;;;;;4952931;28;20107;-58
2022/10/20 03:22:48;;;;;;;22.08;10.30;;;11.70;99.90;;;;;;4913917;29;20036;-57
2022/10/20 03:25:13;;;;;;;10.98;9.30;;;11.70;99.90;;;;;;4954805;28;20043;-57
2022/10/20 03:27:39;;;;;;;14.15;9.65;;;11.60;99.90;;;;;;4925844;28;20035;-58
2022/10/20 03:30:06;;;;;;;13.60;10.60;;;;;;;;;;4927073;28;20031;-59
2022/10/20 03:32:31;;;;;;;14.52;9.68;;;11.50;99.90;;;;;;4951538;29;20120;-58
2022/10/20 03:34:57;;;;;;;15.50;9.57;;;11.40;99.90;;;;;;4920137;29;20039;-58
2022/10/20 03:37:23;;;;;;;15.32;9.73;;;11.40;99.90;;;;;;4953741;28;20082;-57
2022/10/20 03:39:48;;;;;;;16.13;10.38;;;11.30;99.90;;;;;;4950838;29;20027;-58
2022/10/20 03:42:14;;;;;;;15.50;11.02;;;11.30;99.90;;;;;;4953990;29;20019;-58
2022/10/20 03:44:40;;;;;;;17.05;11.30;;;11.30;99.90;;;;;;4954189;29;20035;-58
2022/10/20 03:47:06;;;;;;;15.02;10.98;;;11.30;99.90;;;;;;4954659;28;20027;-57
2022/10/20 03:49:32;;;;;;;12.98;11.30;;;11.30;99.90;;;;;;4953703;29;20031;-58
2022/10/20 03:51:59;;;;;;;13.68;10.27;;;11.20;99.90;;;;;;4920734;29;20054;-58
2022/10/20 03:54:24;;;;;;;13.90;9.90;;;11.20;99.90;;;;;;4953911;29;20027;-59
2022/10/20 03:56:50;;;;;;;13.60;10.02;;;11.30;99.90;;;;;;4954563;29;20360;-57
2022/10/20 03:59:16;;;;;;;15.02;10.93;;;11.10;99.90;;;;;;4947218;29;20043;-57
2022/10/20 04:01:44;;;;;;;14.40;9.43;;;11.00;99.90;;;;;;4953137;29;20049;-58
2022/10/20 04:04:10;;;;;;;17.42;10.48;;;11.00;99.90;;;;;;4909551;29;20054;-58
2022/10/20 04:06:36;;;;;;;12.73;9.70;;;11.00;99.90;;;;;;4911340;29;20183;-58
2022/10/20 04:09:01;;;;;;;10.93;9.20;;;11.00;99.90;;;;;;4906930;29;20079;-57
2022/10/20 04:11:27;;;;;;;12.15;8.80;;;11.00;99.90;;;;;;4908438;29;20032;-58
2022/10/20 04:13:53;;;;;;;16.48;9.98;;;10.90;99.90;;;;;;4913980;29;20047;-57
2022/10/20 04:16:19;;;;;;;14.35;9.50;;;10.70;99.90;;;;;;4897251;29;20119;-56
2022/10/20 04:18:45;;;;;;;11.98;8.50;;;10.70;99.90;;;;;;4882758;29;20164;-58
2022/10/20 04:21:10;;;;;;;12.57;9.10;;;10.70;99.90;;;;;;4880260;29;20041;-57
2022/10/20 04:23:36;;;;;;;12.23;9.73;;;10.70;99.90;;;;;;4911260;29;20036;-59
2022/10/20 04:26:14;;;;;;;10.27;8.63;;;10.80;99.90;;;;;;4912353;29;20051;-57
2022/10/20 04:28:40;;;;;;;14.05;9.15;;;10.70;99.90;;;;;;4904470;29;20032;-58
2022/10/20 04:31:06;;;;;;;11.55;9.05;;;10.60;99.90;;;;;;4863308;29;20043;-57
2022/10/20 04:33:33;;;;;;;13.38;10.10;;;10.80;99.90;;;;;;4911208;29;20032;-58
2022/10/20 04:36:07;;;;;;;14.23;9.80;;;10.80;99.90;;;;;;4942340;29;20042;-58
2022/10/20 04:38:34;;;;;;;11.55;9.00;;;10.80;99.90;;;;;;4944424;29;20086;-58
2022/10/20 04:41:03;;;;;;;14.43;9.60;;;10.70;99.90;;;;;;4915190;29;20040;-57
2022/10/20 04:43:29;;;;;;;14.90;10.73;;;10.70;99.90;;;;;;4952327;29;20036;-59
2022/10/20 04:45:59;;;;;;;13.38;8.57;;;10.70;99.90;;;;;;4951797;29;20036;-57
2022/10/20 04:48:25;;;;;;;14.93;9.52;;;10.80;99.90;;;;;;4949920;29;20083;-58
2022/10/20 04:51:09;;;;;;;13.95;9.75;;;10.70;99.90;;;;;;4952426;29;20027;-58
2022/10/20 04:53:35;;;;;;;13.10;10.15;;;10.80;99.90;;;;;;4883527;29;20063;-56
2022/10/20 04:56:03;;;;;;;15.43;9.90;;;10.80;99.90;;;;;;4910867;29;20424;-57
2022/10/20 04:58:29;;;;;;;15.25;10.05;;;10.60;99.90;;;;;;4912800;29;20044;-57
2022/10/20 05:01:00;;;;;;;14.98;9.85;;;10.70;99.90;;;;;;4896821;29;20044;-57
2022/10/20 05:03:26;;;;;;;11.55;10.30;;;10.80;99.90;;;;;;4913167;29;20047;-57
2022/10/20 05:05:52;;;;;;;12.98;10.68;;;10.90;99.90;;;;;;4896156;29;20040;-58
2022/10/20 05:08:17;;;;;;;13.52;10.05;;;10.90;99.90;;;;;;4913966;29;20028;-57
2022/10/20 05:10:43;;;;;;;15.98;10.75;;;11.00;99.90;;;;;;4897343;29;20044;-57
2022/10/20 05:13:09;;;;;;;15.30;10.43;;;10.90;99.90;;;;;;4913266;29;20052;-58
2022/10/20 05:15:35;;;;;;;16.40;12.27;;;10.80;99.90;;;;;;4913615;29;20436;-59
2022/10/20 05:18:01;;;;;;;14.57;10.00;;;10.40;99.90;;;;;;4913003;29;20032;-58
2022/10/20 05:20:27;;;;;;;14.05;10.90;;;10.50;99.90;;;;;;4913561;29;20048;-59
2022/10/20 05:22:52;;;;;;;14.88;10.85;;;10.50;99.90;;;;;;4914756;29;20164;-59
2022/10/20 05:25:18;;;;;;;18.63;11.48;;;10.60;99.90;;;;;;4947231;29;20146;-59
2022/10/20 05:27:44;;;;;;;17.88;11.25;;;10.70;99.90;;;;;;4955032;29;20035;-55
2022/10/20 05:30:10;;;;;;;14.68;10.63;;;10.60;99.90;;;;;;4956574;29;20036;-59
2022/10/20 05:32:35;;;;;;;16.08;10.95;;;10.50;99.90;;;;;;4954754;29;20023;-57
2022/10/20 05:35:01;;;;;;;19.95;11.27;;;10.60;99.90;;;;;;4905394;29;20042;-59
2022/10/20 05:37:27;;;;;;;16.40;11.15;;;10.40;99.90;;;;;;4904114;29;20059;-57
2022/10/20 05:39:53;;;;;;;11.77;8.82;;;;;;;;;;4953521;29;20030;-57
2022/10/20 05:42:19;;;;;;;12.32;9.50;;;12.20;99.90;;;;;;4937255;29;20031;-57
2022/10/20 05:44:44;;;;;;;11.73;9.00;;;13.20;99.90;;;;;;4953966;29;20493;-58
2022/10/20 05:47:10;;;;;;;11.45;8.98;;;15.00;99.90;;;;;;4952014;29;20094;-59
2022/10/20 05:49:36;;;;;;;10.65;8.25;;;15.90;99.90;;;;;;4952670;29;20114;-57
2022/10/20 05:52:01;;;;;;;11.25;8.05;;;17.40;99.90;;;;;;4893612;29;20055;-59
2022/10/20 05:54:27;;;;;;;8.57;7.50;;;18.30;99.90;;;;;;4951909;29;20074;-57
2022/10/20 05:56:53;;;;;;;10.10;7.65;;;19.50;99.90;;;;;;4905731;29;20079;-58
2022/10/20 05:59:19;;;;;;;11.55;6.97;;;20.50;99.90;;;;;;4905643;29;20039;-58
2022/10/20 06:01:48;;;;;;;8.15;6.80;;;;;;;;;;4951055;29;20019;-57
2022/10/20 06:04:19;;;;;;;11.88;7.00;;;20.70;99.90;;;;;;4949011;29;20057;-57
2022/10/20 06:06:44;;;;;;;11.95;7.07;;;21.00;99.90;;;;;;4956764;29;20030;-60
2022/10/20 06:09:11;;;;;;;9.57;7.60;;;21.70;99.90;;;;;;4949952;29;20442;-59
2022/10/20 06:11:37;;;;;;;10.68;6.22;;;23.10;98.60;;;;;;4951128;29;20031;-59
2022/10/20 06:14:03;;;;;;;10.10;6.97;;;23.20;97.10;;;;;;4906258;29;20031;-56
2022/10/20 06:16:29;;;;;;;11.55;7.93;;;22.90;96.90;;;;;;4955716;29;20060;-56
2022/10/20 06:18:57;;;;;;;9.30;5.80;;;;;;;;;;4951905;29;20039;-56
2022/10/20 06:21:24;;;;;;;10.80;6.07;;;;;;;;;;4953658;29;20042;-56
2022/10/20 06:23:50;;;;;;;9.80;5.57;;;;;;;;;;4953503;29;20074;-55
2022/10/20 06:26:18;;;;;;;8.50;5.85;;;;;;;;;;4905065;29;20078;-55
2022/10/20 06:28:45;;;;;;;9.07;5.35;;;;;;;;;;4950114;29;20039;-57
2022/10/20 06:31:11;;;;;;;7.07;5.30;;;;;;;;;;4955586;28;20023;-55
2022/10/20 06:33:38;;;;;;;8.85;5.90;;;25.00;98.60;;;;;;4949538;29;20031;-57
2022/10/20 06:36:04;;;;;;;6.93;5.03;;;25.30;99.90;;;;;;4948962;29;20015;-56
2022/10/20 06:38:29;;;;;;;6.07;5.40;;;25.30;90.90;;;;;;4888569;29;20083;-55
2022/10/20 06:40:55;;;;;;;8.35;5.68;;;24.50;90.90;;;;;;4931790;29;20095;-55
2022/10/20 06:43:21;;;;;;;8.98;5.00;;;23.90;91.20;;;;;;4954563;29;20027;-57
2022/10/20 06:45:58;;;;;;;8.43;5.68;;;23.10;91.70;;;;;;4951783;29;20039;-57
2022/10/20 06:48:25;;;;;;;7.72;4.93;;;23.30;91.80;;;;;;4951386;29;20479;-58
2022/10/20 06:50:56;;;;;;;7.18;5.28;;;;;;;;;;4950444;29;20480;-58
2022/10/20 06:53:21;;;;;;;6.35;4.30;;;21.40;99.90;;;;;;4935348;29;20091;-56
2022/10/20 06:56:01;;;;;;;8.38;3.83;;;;;;;;;;4950824;29;20031;-57
2022/10/20 06:58:27;;;;;;;7.47;4.90;;;21.00;92.30;;;;;;4953211;29;20034;-57
2022/10/20 07:01:01;;;;;;;7.50;5.22;;;20.30;93.90;;;;;;4951667;29;20023;-58
2022/10/20 07:03:27;;;;;;;8.88;5.68;;;21.10;93.50;;;;;;4952196;29;20051;-57
2022/10/20 07:05:54;;;;;;;11.35;5.70;;;22.50;93.00;;;;;;4952943;29;20038;-57
2022/10/20 07:08:20;;;;;;;9.07;6.03;;;23.50;92.60;;;;;;4952161;29;20055;-57
2022/10/20 07:10:46;;;;;;;8.52;4.95;;;;;;;;;;4950138;29;20019;-57
2022/10/20 07:13:12;;;;;;;7.78;5.55;;;24.40;90.30;;;;;;4936181;29;20379;-57
2022/10/20 07:15:38;;;;;;;8.73;4.95;;;;;;;;;;4949409;29;20057;-58
2022/10/20 07:18:03;;;;;;;8.10;5.50;;;25.70;88.60;;;;;;4951475;29;20042;-58
2022/10/20 07:20:29;;;;;;;10.23;5.10;;;24.20;90.30;;;;;;4952826;29;20035;-58
2022/10/20 07:22:56;;;;;;;11.43;6.00;;;;;;;;;;4916461;29;20046;-57
2022/10/20 07:25:22;;;;;;;7.93;5.95;;;;;;;;;;4918920;29;20043;-59
2022/10/20 07:27:48;;;;;;;7.68;5.75;;;26.40;94.00;;;;;;4953579;29;20027;-56
2022/10/20 07:30:14;;;;;;;12.35;6.45;;;;;;;;;;4951632;29;20054;-56
2022/10/20 07:32:40;;;;;;;7.18;6.03;;;28.40;89.60;;;;;;4951870;29;20034;-59
2022/10/20 07:35:06;;;;;;;10.35;6.22;;;;;;;;;;4951378;29;20031;-52
2022/10/20 07:37:32;;;;;;;15.40;5.88;;;29.90;83.80;;;;;;4948883;28;20054;-62
2022/10/20 07:39:58;;;;;;;11.43;5.90;;;;;;;;;;4951600;28;20020;-55
2022/10/20 07:42:24;;;;;;;13.07;5.70;;;30.30;99.60;;;;;;4949830;28;20039;-51
2022/10/20 07:44:49;;;;;;;8.60;5.53;;;28.90;79.90;;;;;;4952217;28;20386;-57
2022/10/20 07:47:15;;;;;;;5.82;5.18;;;26.60;81.20;;;;;;4950164;28;20126;-64
2022/10/20 07:49:41;;;;;;;6.68;5.45;;;26.80;82.70;;;;;;4950121;29;20039;-51
2022/10/20 07:52:07;;;;;;;6.78;5.07;;;27.20;83.90;;;;;;4951492;29;20036;-56
2022/10/20 07:54:33;;;;;;;9.75;5.18;;;29.50;98.40;;;;;;4953025;29;20023;-55
2022/10/20 07:56:58;;;;;;;9.57;5.68;;;29.90;97.30;;;;;;4952604;29;20505;-53
2022/10/20 07:59:25;;;;;;;7.13;5.30;;;;;;;;;;4950033;28;20027;-49
2022/10/20 08:01:51;;;;;;;10.32;5.43;;;;;;;;;;4953753;28;20090;-51
2022/10/20 08:04:17;;;;;;;13.63;5.75;;;;;;;;;;4948586;29;20050;-50
2022/10/20 08:06:42;;;;;;;10.77;6.07;;;31.10;77.30;;;;;;4950506;28;20019;-51
2022/10/20 08:09:08;;;;;;;6.32;5.00;;;31.20;76.80;;;;;;4948913;29;20493;-51
2022/10/20 08:11:34;;;;;;;6.70;6.05;;;31.30;76.90;;;;;;4953590;29;20039;-54
2022/10/20 08:14:00;;;;;;;7.38;5.70;;;29.70;76.90;;;;;;4949993;29;20043;-53
2022/10/20 08:16:26;;;;;;;8.63;5.47;;;30.30;76.90;;;;;;4901522;28;20471;-54
2022/10/20 08:18:52;;;;;;;7.82;7.15;;;;;;;;;;4948253;29;20027;-58
2022/10/20 08:21:19;;;;;;;9.52;6.40;;;;;;;;;;4952195;29;20042;-57
2022/10/20 08:23:47;;;;;;;9.15;5.93;;;30.70;75.70;;;;;;4950548;29;20055;-54
2022/10/20 08:26:18;;;;;;;8.75;6.15;;;30.90;76.00;;;;;;4951938;28;20031;-54
2022/10/20 08:28:43;;;;;;;8.02;5.28;;;28.00;75.90;;;;;;4948671;28;20024;-54
2022/10/20 08:31:09;;;;;;;6.40;4.78;;;28.50;77.10;;;;;;4949745;29;20114;-53
2022/10/20 08:33:35;;;;;;;7.88;5.38;;;30.20;75.60;;;;;;4949136;28;20023;-54
2022/10/20 08:36:06;;;;;;;8.15;6.32;;;31.20;74.10;;;;;;4919646;29;20090;-57
2022/10/20 08:38:32;;;;;;;6.03;5.53;;;31.10;74.40;;;;;;4948757;29;20127;-55
2022/10/20 08:40:59;;;;;;;7.63;5.57;;;30.90;74.00;;;;;;4950188;29;20063;-57
2022/10/20 08:43:25;;;;;;;8.60;5.78;;;;;;;;;;4934705;29;20027;-54
2022/10/20 08:45:51;;;;;;;10.70;6.47;;;30.70;93.00;;;;;;4951290;29;20074;-54
2022/10/20 08:48:28;;;;;;;8.38;6.18;;;30.90;73.90;;;;;;4948581;29;20218;-56
2022/10/20 08:50:54;;;;;;;8.10;5.40;;;29.10;74.20;;;;;;4949483;29;20467;-55
2022/10/20 08:53:23;;;;;;;6.35;5.03;;;29.50;75.40;;;;;;4949816;29;20027;-55
2022/10/20 08:55:49;;;;;;;8.43;5.30;;;;;;;;;;4955846;29;20062;-59
2022/10/20 08:58:19;;;;;;;7.47;5.68;;;30.70;73.90;;;;;;4952991;29;20023;-56
2022/10/20 09:00:45;;;;;;;14.10;6.00;;;29.50;74.10;;;;;;4949396;29;20031;-59
2022/10/20 09:03:17;;;;;;;14.27;10.10;;;;;;;;;;4957222;29;20058;-58
2022/10/20 09:05:48;;;;;;;11.20;7.35;;;30.50;73.60;;;;;;4949909;29;20031;-60
2022/10/20 09:08:14;;;;;;;17.80;5.40;;;30.60;73.60;;;;;;4951250;29;20086;-55
2022/10/20 09:10:52;;;;;;;8.32;5.57;;;30.20;73.50;;;;;;4918953;29;20051;-59
2022/10/20 09:13:24;;;;;;;5.32;4.78;;;;;;;;;;4953278;29;20024;-57
2022/10/20 09:15:51;;;;;;;6.72;6.00;;;;;;;;;;4955548;29;20086;-56
2022/10/20 09:18:17;;;;;;;13.80;6.05;;;30.60;71.80;;;;;;4937598;29;20099;-57
2022/10/20 09:20:56;;;;;;;10.68;5.43;;;30.80;73.30;;;;;;4951075;29;20472;-57
2022/10/20 09:23:39;;;;;;;6.38;4.80;;;;;;;;;;4953023;29;20456;-56
2022/10/20 09:26:21;;;;;;;12.82;6.00;;;31.00;71.50;;;;;;4956807;29;21590;-56
2022/10/20 09:28:49;;;;;;;6.05;5.45;;;31.20;72.40;;;;;;4954213;29;20034;-60
2022/10/20 09:31:36;;;;;;;8.60;7.70;;;28.90;72.00;;;;;;4952310;29;20043;-58
2022/10/20 09:34:22;;;;;;;11.18;6.60;;;29.50;73.20;;;;;;4951513;29;20035;-56
2022/10/20 09:36:50;;;;;;;7.18;6.47;;;29.90;73.70;;;;;;4952112;29;20126;-58
2022/10/20 09:39:25;;;;;;;7.97;5.63;;;29.00;73.20;;;;;;4914958;29;20110;-59
2022/10/20 09:41:58;;;;;;;6.85;6.13;;;;;;;;;;4913729;29;20780;-60
2022/10/20 09:44:24;;;;;;;7.88;7.18;;;29.40;90.10;;;;;;4915252;29;20087;-58
2022/10/20 09:46:53;;;;;;;9.45;6.32;;;28.30;73.90;;;;;;4916436;29;20574;-56
2022/10/20 09:49:25;;;;;;;10.10;6.88;;;;;;;;;;4915405;29;20036;-59
2022/10/20 09:51:52;;;;;;;12.05;6.20;;;28.30;73.90;;;;;;4914883;29;20028;-57
2022/10/20 09:54:19;;;;;;;9.07;6.35;;;28.50;74.50;;;;;;4915252;29;20568;-59
2022/10/20 09:56:48;;;;;;;8.77;6.47;;;;;;;;;;4915275;29;20524;-58
2022/10/20 09:59:32;;;;;;;9.52;7.10;;;30.10;93.90;;;;;;4918151;29;20043;-58
2022/10/20 10:02:22;;;;;;;8.68;6.53;;;29.60;72.50;;;;;;4914454;29;20034;-59
2022/10/20 10:04:52;;;;;;;9.38;7.55;;;29.50;72.60;;;;;;4914602;29;20139;-56
2022/10/20 10:07:21;;;;;;;41.42;28.17;;;29.10;72.60;;;;;;4914607;29;20499;-56
2022/10/20 10:10:07;;;;;;;11.50;8.20;;;;;;;;;;4926544;29;20066;-57
2022/10/20 10:12:34;;;;;;;9.48;7.05;;;30.00;88.00;;;;;;4937595;29;20062;-56
2022/10/20 10:15:06;;;;;;;10.63;7.50;;;30.60;91.40;;;;;;4950456;29;20035;-56
2022/10/20 10:17:39;;;;;;;10.27;6.82;;;;;;;;;;4952837;28;20593;-57
2022/10/20 10:20:07;;;;;;;9.07;7.85;;;;;;;;;;4954645;29;20031;-55
2022/10/20 10:22:34;;;;;;;10.27;7.47;;;29.40;89.40;;;;;;4951181;29;20071;-59
2022/10/20 10:25:01;;;;;;;12.20;9.13;;;29.40;88.30;;;;;;4947989;29;20435;-53
2022/10/20 10:27:30;;;;;;;8.48;7.15;;;29.70;76.00;;;;;;4950297;29;20027;-53
2022/10/20 10:30:15;;;;;;;10.98;6.85;;;;;;;;;;4919060;29;20058;-53
2022/10/20 10:32:45;;;;;;;6.57;5.47;;;;;;;;;;4953437;29;20062;-54
2022/10/20 10:35:20;;;;;;;10.00;6.70;;;29.70;99.30;;;;;;4954471;29;20032;-55
2022/10/20 10:37:47;;;;;;;15.25;6.50;;;;;;;;;;4938546;29;20047;-52
2022/10/20 10:40:13;;;;;;;10.20;6.18;;;;;;;;;;4965859;28;20030;-53
2022/10/20 10:42:48;;;;;;;11.32;6.10;;;29.60;92.60;;;;;;4971191;28;20495;-55
2022/10/20 10:45:32;;;;;;;9.95;5.38;;;29.50;72.90;;;;;;4972441;28;20034;-62
2022/10/20 10:48:25;;;;;;;15.32;6.18;;;30.00;72.50;;;;;;4967396;28;20026;-51
2022/10/20 10:50:51;;;;;;;13.80;5.75;;;;;;;;;;4955488;28;20487;-56
2022/10/20 10:53:26;;;;;;;12.73;5.10;;;30.40;92.30;;;;;;4967989;28;20035;-57
2022/10/20 10:56:35;;;;;;;7.75;4.38;;;30.10;71.40;;;;;;4970117;28;20095;-61
2022/10/20 10:59:10;;;;;;;9.15;5.32;;;30.20;70.70;;;;;;4967521;28;20395;-60
2022/10/20 11:02:03;;;;;;;9.98;4.97;;;30.00;74.60;;;;;;4969950;28;20125;-61
2022/10/20 11:04:41;;;;;;;7.30;4.90;;;28.80;70.60;;;;;;4965594;28;20062;-61
2022/10/20 11:07:25;;;;;;;8.95;4.45;;;28.90;72.60;;;;;;4967607;28;20031;-61
2022/10/20 11:10:18;;;;;;;7.63;4.53;;;28.20;72.50;;;;;;4971943;28;20026;-57
2022/10/20 11:12:49;;;;;;;10.23;5.35;;;;;;;;;;4971302;28;20027;-59
2022/10/20 11:15:15;;;;;;;;;;;;;;;;;;4963743;28;20023;-54
2022/10/20 11:18:02;;;;;;;6.10;4.28;;;29.20;86.70;;;;;;4969100;28;20258;-66
2022/10/20 11:21:19;;;;;;;6.25;4.25;;;28.80;81.00;;;;;;4968517;28;20420;-56
2022/10/20 11:24:04;;;;;;;7.75;4.20;;;27.80;73.10;;;;;;4892185;29;20044;-62
2022/10/20 11:26:45;;;;;;;5.90;3.95;;;27.90;84.00;;;;;;4862307;29;20067;-57
2022/10/20 11:29:29;;;;;;;7.88;4.97;;;;;;;;;;4895421;29;20493;-55
2022/10/20 11:32:16;;;;;;;10.10;4.57;;;27.70;94.00;;;;;;4895317;29;20127;-57
2022/10/20 11:35:14;;;;;;;6.82;3.80;;;28.30;93.90;;;;;;4847394;29;20485;-56
2022/10/20 11:38:23;;;;;;;8.15;4.30;;;27.60;73.10;;;;;;4884123;29;20171;-59
2022/10/20 11:40:59;;;;;;;6.97;4.57;;;27.10;73.30;;;;;;4877251;29;20557;-58
2022/10/20 11:44:05;;;;;;;8.93;3.97;;;27.70;73.10;;;;;;4876621;29;20029;-56
2022/10/20 11:46:39;;;;;;;11.32;5.05;;;27.20;73.30;;;;;;4876469;29;20101;-56
2022/10/20 11:49:06;;;;;;;8.90;3.90;;;27.60;73.20;;;;;;4875766;29;20629;-53
2022/10/20 11:51:32;;;;;;;6.20;4.00;;;27.70;74.10;;;;;;4844596;29;20041;-56
2022/10/20 11:54:39;;;;;;;13.35;8.43;;;27.20;72.60;;;;;;4843542;29;20522;-53
2022/10/20 11:57:29;;;;;;;8.30;4.80;;;26.90;74.40;;;;;;4873287;29;20135;-55
2022/10/20 12:00:30;;;;;;;6.40;3.08;;;27.10;75.30;;;;;;4932631;29;20054;-53
2022/10/20 12:03:24;;;;;;;6.32;3.65;;;27.30;73.10;;;;;;4934234;29;20107;-55
2022/10/20 12:06:30;;;;;;;7.80;3.78;;;26.70;72.00;;;;;;4951885;29;20132;-56
2022/10/20 12:09:33;;;;;;;5.68;3.60;;;26.40;73.60;;;;;;4874667;29;20041;-61
2022/10/20 12:12:13;;;;;;;10.20;3.58;;;26.30;74.50;;;;;;4881606;29;20025;-59
2022/10/20 12:14:46;;;;;;;13.88;4.15;;;26.60;74.20;;;;;;4877899;29;20505;-56
2022/10/20 12:17:15;;;;;;;7.35;3.70;;;26.30;73.10;;;;;;4874248;29;20481;-56
2022/10/20 12:19:41;;;;;;;6.30;3.17;;;26.20;72.70;;;;;;4881604;29;20047;-57
2022/10/20 12:22:13;;;;;;;4.13;3.33;;;;;;;;;;4843809;29;20037;-56
2022/10/20 12:24:41;;;;;;;5.20;3.40;;;25.50;72.60;;;;;;4874141;29;20375;-59
2022/10/20 12:27:09;;;;;;;5.70;3.70;;;26.10;73.70;;;;;;4873915;29;20049;-57
2022/10/20 12:29:35;;;;;;;6.10;4.32;;;26.30;75.10;;;;;;4879408;29;20044;-58
2022/10/20 12:32:23;;;;;;;6.50;4.15;;;25.50;73.30;;;;;;4830094;29;20051;-56
2022/10/20 12:34:51;;;;;;;6.50;4.07;;;25.20;73.40;;;;;;4887487;29;20123;-56
2022/10/20 12:37:22;;;;;;;6.55;4.07;;;25.40;73.40;;;;;;4891343;29;20064;-55
2022/10/20 12:39:49;;;;;;;6.03;4.03;;;25.20;73.40;;;;;;4879238;29;20532;-58
2022/10/20 12:42:27;;;;;;;8.60;4.43;;;24.80;74.00;;;;;;4905124;29;20100;-51
2022/10/20 12:44:54;;;;;;;9.63;5.57;;;25.10;75.20;;;;;;4921981;28;20410;-52
2022/10/20 12:47:25;;;;;;;5.65;3.60;;;24.80;74.10;;;;;;4975585;28;20421;-51
2022/10/20 12:50:00;;;;;;;9.13;4.47;;;24.90;74.60;;;;;;4976444;28;20046;-53
2022/10/20 12:52:29;;;;;;;8.18;4.70;;;25.20;73.90;;;;;;4976344;28;20039;-54
2022/10/20 12:55:21;;;;;;;8.02;4.72;;;25.40;74.90;;;;;;4976649;28;20038;-55
2022/10/20 12:57:47;;;;;;;10.98;4.47;;;25.90;74.00;;;;;;4975103;28;20046;-54
2022/10/20 13:00:22;;;;;;;6.95;4.53;;;25.90;74.20;;;;;;4967891;28;20034;-56
2022/10/20 13:02:58;;;;;;;6.43;3.67;;;25.70;74.20;;;;;;4974780;28;20026;-55
2022/10/20 13:05:45;;;;;;;6.72;4.32;;;25.90;75.20;;;;;;4975368;28;20042;-55
2022/10/20 13:08:22;;;;;;;7.22;4.15;;;25.30;74.00;;;;;;4975695;28;20034;-56
2022/10/20 13:10:49;;;;;;;4.90;3.50;;;25.30;74.20;;;;;;4976412;28;20034;-57
2022/10/20 13:13:17;;;;;;;5.40;3.50;;;24.80;73.60;;;;;;4975509;28;20482;-54
2022/10/20 13:15:43;;;;;;;5.60;3.22;;;25.00;73.80;;;;;;4975988;28;20085;-52